sensor_id;sensor_type;location;lat;lon;timestamp;temperature;humidity
35085;SHT85;21267;51.032;6.998;2022-09-20T00:01:38;11.85;90.48
35085;SHT85;21267;51.032;6.998;2022-09-20T00:04:05;11.96;89.88
35085;SHT85;21267;51.032;6.998;2022-09-20T00:06:33;11.94;89.99
35085;SHT85;21267;51.032;6.998;2022-09-20T00:09:00;11.93;89.93
35085;SHT85;21267;51.032;6.998;2022-09-20T00:11:30;11.97;89.97
35085;SHT85;21267;51.032;6.998;2022-09-20T00:13:59;12.07;89.68
35085;SHT85;21267;51.032;6.998;2022-09-20T00:16:32;12.04;89.69
35085;SHT85;21267;51.032;6.998;2022-09-20T00:19:01;12.04;89.71
35085;SHT85;21267;51.032;6.998;2022-09-20T00:21:32;11.97;90.20
35085;SHT85;21267;51.032;6.998;2022-09-20T00:23:59;12.01;90.26
35085;SHT85;21267;51.032;6.998;2022-09-20T00:26:27;12.07;90.07
35085;SHT85;21267;51.032;6.998;2022-09-20T00:28:55;12.06;90.05
35085;SHT85;21267;51.032;6.998;2022-09-20T00:31:22;12.07;89.87
35085;SHT85;21267;51.032;6.998;2022-09-20T00:33:52;12.10;89.78
35085;SHT85;21267;51.032;6.998;2022-09-20T00:36:38;12.07;89.65
35085;SHT85;21267;51.032;6.998;2022-09-20T00:39:04;12.08;89.83
35085;SHT85;21267;51.032;6.998;2022-09-20T00:41:32;12.00;90.20
35085;SHT85;21267;51.032;6.998;2022-09-20T00:43:58;11.97;90.25
35085;SHT85;21267;51.032;6.998;2022-09-20T00:49:05;11.99;90.49
35085;SHT85;21267;51.032;6.998;2022-09-20T00:51:36;11.89;90.75
35085;SHT85;21267;51.032;6.998;2022-09-20T00:54:05;11.93;90.63
35085;SHT85;21267;51.032;6.998;2022-09-20T00:56:37;11.93;90.84
35085;SHT85;21267;51.032;6.998;2022-09-20T00:59:21;11.90;90.98
35085;SHT85;21267;51.032;6.998;2022-09-20T01:01:55;11.89;91.51
35085;SHT85;21267;51.032;6.998;2022-09-20T01:04:24;11.79;92.00
35085;SHT85;21267;51.032;6.998;2022-09-20T01:06:53;11.73;92.15
35085;SHT85;21267;51.032;6.998;2022-09-20T01:09:22;11.66;92.59
35085;SHT85;21267;51.032;6.998;2022-09-20T01:11:51;11.70;92.35
35085;SHT85;21267;51.032;6.998;2022-09-20T01:14:18;11.59;92.76
35085;SHT85;21267;51.032;6.998;2022-09-20T01:16:47;11.62;92.82
35085;SHT85;21267;51.032;6.998;2022-09-20T01:19:25;11.63;92.59
35085;SHT85;21267;51.032;6.998;2022-09-20T01:21:54;11.62;93.03
35085;SHT85;21267;51.032;6.998;2022-09-20T01:24:27;11.55;93.11
35085;SHT85;21267;51.032;6.998;2022-09-20T01:29:53;11.50;93.37
35085;SHT85;21267;51.032;6.998;2022-09-20T01:32:31;11.50;93.62
35085;SHT85;21267;51.032;6.998;2022-09-20T01:35:01;11.45;93.71
35085;SHT85;21267;51.032;6.998;2022-09-20T01:40:07;11.50;93.55
35085;SHT85;21267;51.032;6.998;2022-09-20T01:42:39;11.53;93.38
35085;SHT85;21267;51.032;6.998;2022-09-20T01:45:13;11.66;92.92
35085;SHT85;21267;51.032;6.998;2022-09-20T01:50:48;11.73;92.77
35085;SHT85;21267;51.032;6.998;2022-09-20T01:56:10;11.93;92.42
35085;SHT85;21267;51.032;6.998;2022-09-20T02:05:03;11.90;91.35
35085;SHT85;21267;51.032;6.998;2022-09-20T02:08:39;11.96;91.18
35085;SHT85;21267;51.032;6.998;2022-09-20T02:16:21;11.94;91.25
35085;SHT85;21267;51.032;6.998;2022-09-20T02:24:52;12.01;90.96
35085;SHT85;21267;51.032;6.998;2022-09-20T02:27:28;11.96;90.87
35085;SHT85;21267;51.032;6.998;2022-09-20T02:30:18;12.03;90.86
35085;SHT85;21267;51.032;6.998;2022-09-20T02:38:24;12.07;90.32
35085;SHT85;21267;51.032;6.998;2022-09-20T02:41:16;12.10;90.16
35085;SHT85;21267;51.032;6.998;2022-09-20T02:46:51;12.03;90.17
35085;SHT85;21267;51.032;6.998;2022-09-20T02:49:34;11.99;90.41
35085;SHT85;21267;51.032;6.998;2022-09-20T03:01:02;11.94;90.53
35085;SHT85;21267;51.032;6.998;2022-09-20T03:04:09;12.01;90.57
35085;SHT85;21267;51.032;6.998;2022-09-20T03:07:00;11.93;90.60
35085;SHT85;21267;51.032;6.998;2022-09-20T03:12:16;11.97;90.24
35085;SHT85;21267;51.032;6.998;2022-09-20T03:17:44;12.00;90.28
35085;SHT85;21267;51.032;6.998;2022-09-20T03:37:22;12.03;90.21
35085;SHT85;21267;51.032;6.998;2022-09-20T03:42:48;11.96;90.93
35085;SHT85;21267;51.032;6.998;2022-09-20T03:54:51;12.08;90.20
35085;SHT85;21267;51.032;6.998;2022-09-20T04:02:52;11.91;90.67
35085;SHT85;21267;51.032;6.998;2022-09-20T04:14:15;11.93;90.14
35085;SHT85;21267;51.032;6.998;2022-09-20T04:17:24;11.93;90.15
35085;SHT85;21267;51.032;6.998;2022-09-20T04:20:01;11.90;90.44
35085;SHT85;21267;51.032;6.998;2022-09-20T04:22:29;11.94;90.35
35085;SHT85;21267;51.032;6.998;2022-09-20T04:25:03;11.87;90.53
35085;SHT85;21267;51.032;6.998;2022-09-20T04:27:42;11.89;90.75
35085;SHT85;21267;51.032;6.998;2022-09-20T04:30:23;11.87;90.91
35085;SHT85;21267;51.032;6.998;2022-09-20T04:35:50;11.89;90.97
35085;SHT85;21267;51.032;6.998;2022-09-20T04:38:39;11.86;90.88
35085;SHT85;21267;51.032;6.998;2022-09-20T04:41:23;11.91;90.74
35085;SHT85;21267;51.032;6.998;2022-09-20T04:50:22;11.89;90.89
35085;SHT85;21267;51.032;6.998;2022-09-20T04:59:04;11.89;90.64
35085;SHT85;21267;51.032;6.998;2022-09-20T05:04:36;11.90;90.80
35085;SHT85;21267;51.032;6.998;2022-09-20T05:30:41;11.94;90.85
35085;SHT85;21267;51.032;6.998;2022-09-20T05:33:18;11.89;90.93
35085;SHT85;21267;51.032;6.998;2022-09-20T05:41:22;11.96;90.83
35085;SHT85;21267;51.032;6.998;2022-09-20T05:50:04;11.96;90.86
35085;SHT85;21267;51.032;6.998;2022-09-20T05:52:59;12.06;90.55
35085;SHT85;21267;51.032;6.998;2022-09-20T05:58:30;12.00;90.63
35085;SHT85;21267;51.032;6.998;2022-09-20T06:01:11;12.08;90.67
35085;SHT85;21267;51.032;6.998;2022-09-20T06:03:46;12.13;90.19
35085;SHT85;21267;51.032;6.998;2022-09-20T06:06:30;12.06;90.36
35085;SHT85;21267;51.032;6.998;2022-09-20T06:09:22;12.13;90.61
35085;SHT85;21267;51.032;6.998;2022-09-20T06:12:18;12.18;90.28
35085;SHT85;21267;51.032;6.998;2022-09-20T06:20:24;12.18;89.98
35085;SHT85;21267;51.032;6.998;2022-09-20T06:22:51;12.18;90.26
35085;SHT85;21267;51.032;6.998;2022-09-20T06:25:30;12.31;89.67
35085;SHT85;21267;51.032;6.998;2022-09-20T06:28:13;12.18;89.96
35085;SHT85;21267;51.032;6.998;2022-09-20T06:33:43;12.31;89.69
35085;SHT85;21267;51.032;6.998;2022-09-20T06:36:18;12.22;89.59
35085;SHT85;21267;51.032;6.998;2022-09-20T06:41:55;12.32;89.40
35085;SHT85;21267;51.032;6.998;2022-09-20T06:44:23;12.41;89.20
35085;SHT85;21267;51.032;6.998;2022-09-20T06:46:49;12.41;89.07
35085;SHT85;21267;51.032;6.998;2022-09-20T06:49:20;12.45;89.35
35085;SHT85;21267;51.032;6.998;2022-09-20T06:51:47;12.49;88.83
35085;SHT85;21267;51.032;6.998;2022-09-20T06:54:17;12.44;88.81
35085;SHT85;21267;51.032;6.998;2022-09-20T06:56:45;12.52;88.78
35085;SHT85;21267;51.032;6.998;2022-09-20T06:59:13;12.58;88.65
35085;SHT85;21267;51.032;6.998;2022-09-20T07:01:41;12.59;88.59
35085;SHT85;21267;51.032;6.998;2022-09-20T07:04:08;12.68;88.50
35085;SHT85;21267;51.032;6.998;2022-09-20T07:06:38;12.80;88.10
35085;SHT85;21267;51.032;6.998;2022-09-20T07:09:05;12.82;87.77
35085;SHT85;21267;51.032;6.998;2022-09-20T07:11:32;12.85;87.44
35085;SHT85;21267;51.032;6.998;2022-09-20T07:14:01;12.78;87.69
35085;SHT85;21267;51.032;6.998;2022-09-20T07:16:27;12.93;87.37
35085;SHT85;21267;51.032;6.998;2022-09-20T07:18:54;13.24;86.65
35085;SHT85;21267;51.032;6.998;2022-09-20T07:21:22;13.74;84.39
35085;SHT85;21267;51.032;6.998;2022-09-20T07:23:49;14.13;82.82
35085;SHT85;21267;51.032;6.998;2022-09-20T07:26:17;14.33;82.71
35085;SHT85;21267;51.032;6.998;2022-09-20T07:28:45;15.08;79.71
35085;SHT85;21267;51.032;6.998;2022-09-20T07:31:11;15.28;79.37
35085;SHT85;21267;51.032;6.998;2022-09-20T07:33:38;14.81;80.21
35085;SHT85;21267;51.032;6.998;2022-09-20T07:36:04;14.30;81.39
35085;SHT85;21267;51.032;6.998;2022-09-20T07:38:31;14.12;81.93
35085;SHT85;21267;51.032;6.998;2022-09-20T07:40:59;13.74;83.58
35085;SHT85;21267;51.032;6.998;2022-09-20T07:43:28;14.20;82.48
35085;SHT85;21267;51.032;6.998;2022-09-20T07:45:56;13.99;81.87
35085;SHT85;21267;51.032;6.998;2022-09-20T07:48:34;14.54;80.60
35085;SHT85;21267;51.032;6.998;2022-09-20T07:51:04;14.09;81.37
35085;SHT85;21267;51.032;6.998;2022-09-20T07:53:34;14.44;81.50
35085;SHT85;21267;51.032;6.998;2022-09-20T07:56:06;14.44;80.79
35085;SHT85;21267;51.032;6.998;2022-09-20T07:58:34;14.91;79.37
35085;SHT85;21267;51.032;6.998;2022-09-20T08:01:05;14.52;80.52
35085;SHT85;21267;51.032;6.998;2022-09-20T08:03:32;15.38;78.94
35085;SHT85;21267;51.032;6.998;2022-09-20T08:06:04;16.04;77.38
35085;SHT85;21267;51.032;6.998;2022-09-20T08:08:32;16.34;74.07
35085;SHT85;21267;51.032;6.998;2022-09-20T08:11:13;16.89;74.16
35085;SHT85;21267;51.032;6.998;2022-09-20T08:13:46;17.58;71.22
35085;SHT85;21267;51.032;6.998;2022-09-20T08:16:37;17.13;72.19
35085;SHT85;21267;51.032;6.998;2022-09-20T08:19:04;16.53;72.16
35085;SHT85;21267;51.032;6.998;2022-09-20T08:21:32;16.49;73.13
35085;SHT85;21267;51.032;6.998;2022-09-20T08:23:59;16.46;72.73
35085;SHT85;21267;51.032;6.998;2022-09-20T08:26:27;17.42;71.03
35085;SHT85;21267;51.032;6.998;2022-09-20T08:28:56;17.55;70.17
35085;SHT85;21267;51.032;6.998;2022-09-20T08:31:25;17.15;69.56
35085;SHT85;21267;51.032;6.998;2022-09-20T08:33:53;17.61;69.18
35085;SHT85;21267;51.032;6.998;2022-09-20T08:36:24;17.92;66.91
35085;SHT85;21267;51.032;6.998;2022-09-20T08:38:52;18.91;66.50
35085;SHT85;21267;51.032;6.998;2022-09-20T08:41:49;18.92;64.25
35085;SHT85;21267;51.032;6.998;2022-09-20T08:44:30;17.81;66.96
35085;SHT85;21267;51.032;6.998;2022-09-20T08:47:20;16.43;69.87
35085;SHT85;21267;51.032;6.998;2022-09-20T08:49:48;16.34;70.53
35085;SHT85;21267;51.032;6.998;2022-09-20T08:52:31;16.39;69.80
35085;SHT85;21267;51.032;6.998;2022-09-20T08:55:11;16.11;70.12
35085;SHT85;21267;51.032;6.998;2022-09-20T08:57:38;16.04;69.77
35085;SHT85;21267;51.032;6.998;2022-09-20T09:00:06;15.76;69.97
35085;SHT85;21267;51.032;6.998;2022-09-20T09:02:32;15.76;71.05
35085;SHT85;21267;51.032;6.998;2022-09-20T09:05:00;15.83;71.33
35085;SHT85;21267;51.032;6.998;2022-09-20T09:07:28;15.86;72.01
35085;SHT85;21267;51.032;6.998;2022-09-20T09:09:55;16.03;72.22
35085;SHT85;21267;51.032;6.998;2022-09-20T09:12:26;16.32;71.43
35085;SHT85;21267;51.032;6.998;2022-09-20T09:14:59;16.31;70.21
35085;SHT85;21267;51.032;6.998;2022-09-20T09:17:29;15.47;72.33
35085;SHT85;21267;51.032;6.998;2022-09-20T09:19:58;15.31;72.80
35085;SHT85;21267;51.032;6.998;2022-09-20T09:22:42;14.95;71.89
35085;SHT85;21267;51.032;6.998;2022-09-20T09:30:25;14.78;74.74
35085;SHT85;21267;51.032;6.998;2022-09-20T09:35:42;14.64;74.88
35085;SHT85;21267;51.032;6.998;2022-09-20T09:38:21;14.60;75.04
35085;SHT85;21267;51.032;6.998;2022-09-20T09:40:58;14.63;74.73
35085;SHT85;21267;51.032;6.998;2022-09-20T09:43:30;14.53;75.39
35085;SHT85;21267;51.032;6.998;2022-09-20T09:46:19;14.49;76.01
35085;SHT85;21267;51.032;6.998;2022-09-20T09:49:08;14.54;75.59
35085;SHT85;21267;51.032;6.998;2022-09-20T09:51:38;14.53;75.62
35085;SHT85;21267;51.032;6.998;2022-09-20T09:54:16;14.43;75.85
35085;SHT85;21267;51.032;6.998;2022-09-20T09:56:58;14.54;75.51
35085;SHT85;21267;51.032;6.998;2022-09-20T10:05:17;14.92;75.05
35085;SHT85;21267;51.032;6.998;2022-09-20T10:10:46;14.99;73.50
35085;SHT85;21267;51.032;6.998;2022-09-20T10:13:25;15.47;72.48
35085;SHT85;21267;51.032;6.998;2022-09-20T10:24:31;18.94;62.66
35085;SHT85;21267;51.032;6.998;2022-09-20T10:27:21;19.20;61.03
35085;SHT85;21267;51.032;6.998;2022-09-20T10:35:24;17.57;65.35
35085;SHT85;21267;51.032;6.998;2022-09-20T10:46:50;17.06;65.90
35085;SHT85;21267;51.032;6.998;2022-09-20T11:00:30;16.25;65.75
35085;SHT85;21267;51.032;6.998;2022-09-20T11:08:39;15.71;66.76
35085;SHT85;21267;51.032;6.998;2022-09-20T11:11:10;15.56;66.71
35085;SHT85;21267;51.032;6.998;2022-09-20T11:13:44;15.40;67.55
35085;SHT85;21267;51.032;6.998;2022-09-20T11:19:04;15.32;70.64
35085;SHT85;21267;51.032;6.998;2022-09-20T11:21:43;15.12;72.32
35085;SHT85;21267;51.032;6.998;2022-09-20T11:27:11;15.14;72.94
35085;SHT85;21267;51.032;6.998;2022-09-20T11:29:45;15.08;71.97
35085;SHT85;21267;51.032;6.998;2022-09-20T11:32:39;14.89;71.32
35085;SHT85;21267;51.032;6.998;2022-09-20T11:37:42;14.64;73.12
35085;SHT85;21267;51.032;6.998;2022-09-20T11:40:14;14.52;74.17
35085;SHT85;21267;51.032;6.998;2022-09-20T11:42:45;14.52;74.54
35085;SHT85;21267;51.032;6.998;2022-09-20T11:45:13;14.56;74.59
35085;SHT85;21267;51.032;6.998;2022-09-20T11:47:57;14.52;74.99
35085;SHT85;21267;51.032;6.998;2022-09-20T11:51:05;14.53;74.59
35085;SHT85;21267;51.032;6.998;2022-09-20T11:53:56;14.70;74.78
35085;SHT85;21267;51.032;6.998;2022-09-20T11:56:28;14.91;73.89
35085;SHT85;21267;51.032;6.998;2022-09-20T11:58:59;15.08;74.11
35085;SHT85;21267;51.032;6.998;2022-09-20T12:01:35;15.36;72.98
35085;SHT85;21267;51.032;6.998;2022-09-20T12:04:27;15.42;71.19
35085;SHT85;21267;51.032;6.998;2022-09-20T12:09:57;15.81;70.92
35085;SHT85;21267;51.032;6.998;2022-09-20T12:12:40;15.87;69.34
35085;SHT85;21267;51.032;6.998;2022-09-20T12:26:02;17.52;62.53
35085;SHT85;21267;51.032;6.998;2022-09-20T12:28:35;18.51;59.76
35085;SHT85;21267;51.032;6.998;2022-09-20T12:33:58;18.58;57.96
35085;SHT85;21267;51.032;6.998;2022-09-20T12:36:25;17.96;60.05
35085;SHT85;21267;51.032;6.998;2022-09-20T12:39:02;18.13;60.98
35085;SHT85;21267;51.032;6.998;2022-09-20T12:44:39;19.06;56.93
35085;SHT85;21267;51.032;6.998;2022-09-20T12:55:43;18.52;58.72
35085;SHT85;21267;51.032;6.998;2022-09-20T12:58:24;18.71;58.29
35085;SHT85;21267;51.032;6.998;2022-09-20T13:11:15;18.03;60.69
35085;SHT85;21267;51.032;6.998;2022-09-20T13:13:50;17.32;64.26
35085;SHT85;21267;51.032;6.998;2022-09-20T13:19:22;16.26;68.29
35085;SHT85;21267;51.032;6.998;2022-09-20T13:24:33;16.25;69.41
35085;SHT85;21267;51.032;6.998;2022-09-20T13:27:06;16.29;68.60
35085;SHT85;21267;51.032;6.998;2022-09-20T13:29:38;16.25;68.21
35085;SHT85;21267;51.032;6.998;2022-09-20T13:32:37;16.22;69.21
35085;SHT85;21267;51.032;6.998;2022-09-20T13:37:37;16.15;68.19
35085;SHT85;21267;51.032;6.998;2022-09-20T13:40:16;16.05;70.06
35085;SHT85;21267;51.032;6.998;2022-09-20T13:42:45;16.05;70.78
35085;SHT85;21267;51.032;6.998;2022-09-20T13:45:12;16.13;71.56
35085;SHT85;21267;51.032;6.998;2022-09-20T13:47:41;16.00;71.73
35085;SHT85;21267;51.032;6.998;2022-09-20T13:50:26;16.17;72.76
35085;SHT85;21267;51.032;6.998;2022-09-20T13:52:55;16.36;71.99
35085;SHT85;21267;51.032;6.998;2022-09-20T13:55:35;17.21;70.45
35085;SHT85;21267;51.032;6.998;2022-09-20T13:58:05;18.08;67.39
35085;SHT85;21267;51.032;6.998;2022-09-20T14:00:34;18.91;66.06
35085;SHT85;21267;51.032;6.998;2022-09-20T14:03:02;18.24;65.44
35085;SHT85;21267;51.032;6.998;2022-09-20T14:05:30;17.62;64.11
35085;SHT85;21267;51.032;6.998;2022-09-20T14:07:58;17.57;65.57
35085;SHT85;21267;51.032;6.998;2022-09-20T14:10:27;18.45;64.42
35085;SHT85;21267;51.032;6.998;2022-09-20T14:12:54;19.97;61.00
35085;SHT85;21267;51.032;6.998;2022-09-20T14:15:22;20.24;57.27
35085;SHT85;21267;51.032;6.998;2022-09-20T14:17:49;19.03;58.24
35085;SHT85;21267;51.032;6.998;2022-09-20T14:20:18;19.10;58.83
35085;SHT85;21267;51.032;6.998;2022-09-20T14:22:45;19.39;58.67
35085;SHT85;21267;51.032;6.998;2022-09-20T14:27:38;20.14;57.17
35085;SHT85;21267;51.032;6.998;2022-09-20T14:30:06;19.33;58.63
35085;SHT85;21267;51.032;6.998;2022-09-20T14:32:36;19.59;58.54
35085;SHT85;21267;51.032;6.998;2022-09-20T14:37:42;19.61;58.31
35085;SHT85;21267;51.032;6.998;2022-09-20T14:40:29;20.09;56.81
35085;SHT85;21267;51.032;6.998;2022-09-20T14:43:03;20.01;57.09
35085;SHT85;21267;51.032;6.998;2022-09-20T14:45:32;20.57;56.32
35085;SHT85;21267;51.032;6.998;2022-09-20T14:53:46;19.87;57.26
35085;SHT85;21267;51.032;6.998;2022-09-20T14:56:14;19.46;57.53
35085;SHT85;21267;51.032;6.998;2022-09-20T15:01:26;19.40;57.80
35085;SHT85;21267;51.032;6.998;2022-09-20T15:03:53;19.73;56.91
35085;SHT85;21267;51.032;6.998;2022-09-20T15:06:20;20.08;56.06
35085;SHT85;21267;51.032;6.998;2022-09-20T15:08:46;20.67;55.17
35085;SHT85;21267;51.032;6.998;2022-09-20T15:11:14;19.90;55.38
35085;SHT85;21267;51.032;6.998;2022-09-20T15:13:41;19.94;55.77
35085;SHT85;21267;51.032;6.998;2022-09-20T15:16:10;20.12;55.56
35085;SHT85;21267;51.032;6.998;2022-09-20T15:18:41;19.81;56.47
35085;SHT85;21267;51.032;6.998;2022-09-20T15:21:09;19.18;57.33
35085;SHT85;21267;51.032;6.998;2022-09-20T15:23:39;19.46;57.51
35085;SHT85;21267;51.032;6.998;2022-09-20T15:26:06;19.81;56.28
35085;SHT85;21267;51.032;6.998;2022-09-20T15:28:34;20.55;54.99
35085;SHT85;21267;51.032;6.998;2022-09-20T15:31:00;20.45;54.98
35085;SHT85;21267;51.032;6.998;2022-09-20T15:33:29;20.59;54.35
35085;SHT85;21267;51.032;6.998;2022-09-20T15:35:55;20.12;54.92
35085;SHT85;21267;51.032;6.998;2022-09-20T15:38:22;20.14;55.26
35085;SHT85;21267;51.032;6.998;2022-09-20T15:40:52;19.45;55.08
35085;SHT85;21267;51.032;6.998;2022-09-20T15:43:21;19.32;55.52
35085;SHT85;21267;51.032;6.998;2022-09-20T15:45:51;19.43;54.61
35085;SHT85;21267;51.032;6.998;2022-09-20T15:48:23;19.49;54.27
35085;SHT85;21267;51.032;6.998;2022-09-20T15:53:24;18.12;56.94
35085;SHT85;21267;51.032;6.998;2022-09-20T15:55:50;18.36;56.41
35085;SHT85;21267;51.032;6.998;2022-09-20T15:58:17;18.45;56.30
35085;SHT85;21267;51.032;6.998;2022-09-20T16:00:44;18.50;55.74
35085;SHT85;21267;51.032;6.998;2022-09-20T16:03:11;18.03;55.95
35085;SHT85;21267;51.032;6.998;2022-09-20T16:05:38;18.26;56.26
35085;SHT85;21267;51.032;6.998;2022-09-20T16:08:04;18.02;56.15
35085;SHT85;21267;51.032;6.998;2022-09-20T16:10:31;17.79;56.61
35085;SHT85;21267;51.032;6.998;2022-09-20T16:12:58;17.50;57.51
35085;SHT85;21267;51.032;6.998;2022-09-20T16:15:24;17.99;56.59
35085;SHT85;21267;51.032;6.998;2022-09-20T16:17:51;17.91;57.37
35085;SHT85;21267;51.032;6.998;2022-09-20T16:20:36;17.76;57.66
35085;SHT85;21267;51.032;6.998;2022-09-20T16:23:02;17.63;58.74
35085;SHT85;21267;51.032;6.998;2022-09-20T16:25:29;17.34;60.09
35085;SHT85;21267;51.032;6.998;2022-09-20T16:27:55;17.20;61.63
35085;SHT85;21267;51.032;6.998;2022-09-20T16:30:22;17.02;62.16
35085;SHT85;21267;51.032;6.998;2022-09-20T16:32:48;16.89;63.05
35085;SHT85;21267;51.032;6.998;2022-09-20T16:35:15;16.61;63.81
35085;SHT85;21267;51.032;6.998;2022-09-20T16:37:42;16.52;64.46
35085;SHT85;21267;51.032;6.998;2022-09-20T16:40:09;16.42;64.41
35085;SHT85;21267;51.032;6.998;2022-09-20T16:42:38;16.07;65.47
35085;SHT85;21267;51.032;6.998;2022-09-20T16:45:05;16.21;65.72
35085;SHT85;21267;51.032;6.998;2022-09-20T16:47:32;16.10;65.85
35085;SHT85;21267;51.032;6.998;2022-09-20T16:49:59;16.15;65.91
35085;SHT85;21267;51.032;6.998;2022-09-20T16:52:26;16.25;65.65
35085;SHT85;21267;51.032;6.998;2022-09-20T16:54:53;16.00;66.44
35085;SHT85;21267;51.032;6.998;2022-09-20T16:57:19;15.91;66.67
35085;SHT85;21267;51.032;6.998;2022-09-20T16:59:47;15.76;66.80
35085;SHT85;21267;51.032;6.998;2022-09-20T17:02:17;15.84;66.58
35085;SHT85;21267;51.032;6.998;2022-09-20T17:04:43;15.73;67.26
35085;SHT85;21267;51.032;6.998;2022-09-20T17:07:10;15.83;66.87
35085;SHT85;21267;51.032;6.998;2022-09-20T17:09:36;15.62;67.72
35085;SHT85;21267;51.032;6.998;2022-09-20T17:12:03;15.81;67.23
35085;SHT85;21267;51.032;6.998;2022-09-20T17:14:34;15.74;67.44
35085;SHT85;21267;51.032;6.998;2022-09-20T17:17:02;15.70;67.56
35085;SHT85;21267;51.032;6.998;2022-09-20T17:19:28;15.78;67.72
35085;SHT85;21267;51.032;6.998;2022-09-20T17:21:55;15.64;68.08
35085;SHT85;21267;51.032;6.998;2022-09-20T17:24:21;15.49;68.54
35085;SHT85;21267;51.032;6.998;2022-09-20T17:26:49;15.60;68.73
35085;SHT85;21267;51.032;6.998;2022-09-20T17:29:17;15.47;68.64
35085;SHT85;21267;51.032;6.998;2022-09-20T17:31:48;15.32;68.87
35085;SHT85;21267;51.032;6.998;2022-09-20T17:34:27;15.38;69.00
35085;SHT85;21267;51.032;6.998;2022-09-20T17:36:54;15.06;69.72
35085;SHT85;21267;51.032;6.998;2022-09-20T17:39:21;15.05;70.00
35085;SHT85;21267;51.032;6.998;2022-09-20T17:41:48;15.08;70.04
35085;SHT85;21267;51.032;6.998;2022-09-20T17:44:16;14.94;70.58
35085;SHT85;21267;51.032;6.998;2022-09-20T17:46:44;14.91;70.95
35085;SHT85;21267;51.032;6.998;2022-09-20T17:49:14;14.84;71.35
35085;SHT85;21267;51.032;6.998;2022-09-20T17:51:42;14.80;71.45
35085;SHT85;21267;51.032;6.998;2022-09-20T17:58:39;14.70;72.20
35085;SHT85;21267;51.032;6.998;2022-09-20T18:01:10;14.87;72.07
35085;SHT85;21267;51.032;6.998;2022-09-20T18:03:40;14.80;72.22
35085;SHT85;21267;51.032;6.998;2022-09-20T18:08:49;14.71;72.94
35085;SHT85;21267;51.032;6.998;2022-09-20T18:11:19;14.61;73.41
35085;SHT85;21267;51.032;6.998;2022-09-20T18:13:46;14.67;73.33
35085;SHT85;21267;51.032;6.998;2022-09-20T18:16:14;14.60;73.33
35085;SHT85;21267;51.032;6.998;2022-09-20T18:18:42;14.67;73.25
35085;SHT85;21267;51.032;6.998;2022-09-20T18:21:17;14.68;72.96
35085;SHT85;21267;51.032;6.998;2022-09-20T18:23:44;14.64;73.65
35085;SHT85;21267;51.032;6.998;2022-09-20T18:26:19;14.61;73.68
35085;SHT85;21267;51.032;6.998;2022-09-20T18:29:09;14.59;73.95
35085;SHT85;21267;51.032;6.998;2022-09-20T18:31:38;14.49;74.11
35085;SHT85;21267;51.032;6.998;2022-09-20T18:34:18;14.41;74.87
35085;SHT85;21267;51.032;6.998;2022-09-20T18:36:48;14.50;74.49
35085;SHT85;21267;51.032;6.998;2022-09-20T18:39:20;14.54;74.75
35085;SHT85;21267;51.032;6.998;2022-09-20T18:41:47;14.41;75.32
35085;SHT85;21267;51.032;6.998;2022-09-20T18:44:15;14.17;76.64
35085;SHT85;21267;51.032;6.998;2022-09-20T18:46:44;14.17;77.05
35085;SHT85;21267;51.032;6.998;2022-09-20T18:49:12;14.30;76.68
35085;SHT85;21267;51.032;6.998;2022-09-20T18:51:41;14.12;77.34
35085;SHT85;21267;51.032;6.998;2022-09-20T18:54:09;14.04;77.21
35085;SHT85;21267;51.032;6.998;2022-09-20T18:56:36;14.13;77.18
35085;SHT85;21267;51.032;6.998;2022-09-20T18:59:05;14.23;76.55
35085;SHT85;21267;51.032;6.998;2022-09-20T19:04:44;13.92;77.85
35085;SHT85;21267;51.032;6.998;2022-09-20T19:07:26;13.92;77.90
35085;SHT85;21267;51.032;6.998;2022-09-20T19:13:10;13.58;79.01
35085;SHT85;21267;51.032;6.998;2022-09-20T19:21:26;13.59;79.24
35085;SHT85;21267;51.032;6.998;2022-09-20T19:26:38;13.50;79.97
35085;SHT85;21267;51.032;6.998;2022-09-20T19:29:21;13.58;79.72
35085;SHT85;21267;51.032;6.998;2022-09-20T19:31:50;13.36;80.34
35085;SHT85;21267;51.032;6.998;2022-09-20T19:34:25;13.20;81.13
35085;SHT85;21267;51.032;6.998;2022-09-20T19:39:51;13.22;81.39
35085;SHT85;21267;51.032;6.998;2022-09-20T19:47:41;13.10;82.14
35085;SHT85;21267;51.032;6.998;2022-09-20T19:52:50;13.19;81.54
35085;SHT85;21267;51.032;6.998;2022-09-20T19:55:17;13.12;81.66
35085;SHT85;21267;51.032;6.998;2022-09-20T19:57:45;12.99;82.51
35085;SHT85;21267;51.032;6.998;2022-09-20T20:00:19;12.83;83.07
35085;SHT85;21267;51.032;6.998;2022-09-20T20:02:46;12.69;83.47
35085;SHT85;21267;51.032;6.998;2022-09-20T20:05:16;12.69;83.45
35085;SHT85;21267;51.032;6.998;2022-09-20T20:07:51;12.75;83.68
35085;SHT85;21267;51.032;6.998;2022-09-20T20:10:25;12.62;84.59
35085;SHT85;21267;51.032;6.998;2022-09-20T20:13:24;12.69;84.13
35085;SHT85;21267;51.032;6.998;2022-09-20T20:18:24;12.72;84.00
35085;SHT85;21267;51.032;6.998;2022-09-20T20:20:53;12.66;84.58
35085;SHT85;21267;51.032;6.998;2022-09-20T20:28:33;12.58;84.59
35085;SHT85;21267;51.032;6.998;2022-09-20T20:31:00;12.52;84.79
35085;SHT85;21267;51.032;6.998;2022-09-20T20:33:27;12.39;85.14
35085;SHT85;21267;51.032;6.998;2022-09-20T20:35:59;12.44;85.22
35085;SHT85;21267;51.032;6.998;2022-09-20T20:38:27;12.37;85.63
35085;SHT85;21267;51.032;6.998;2022-09-20T20:40:59;12.29;85.64
35085;SHT85;21267;51.032;6.998;2022-09-20T20:43:31;12.20;86.46
35085;SHT85;21267;51.032;6.998;2022-09-20T20:45:58;12.04;86.91
35085;SHT85;21267;51.032;6.998;2022-09-20T20:48:25;11.90;87.79
35085;SHT85;21267;51.032;6.998;2022-09-20T20:53:34;11.78;88.00
35085;SHT85;21267;51.032;6.998;2022-09-20T20:56:09;11.75;88.57
35085;SHT85;21267;51.032;6.998;2022-09-20T20:58:39;11.90;88.16
35085;SHT85;21267;51.032;6.998;2022-09-20T21:01:10;11.82;88.41
35085;SHT85;21267;51.032;6.998;2022-09-20T21:03:39;11.63;88.86
35085;SHT85;21267;51.032;6.998;2022-09-20T21:06:07;11.42;89.62
35085;SHT85;21267;51.032;6.998;2022-09-20T21:08:36;11.41;89.72
35085;SHT85;21267;51.032;6.998;2022-09-20T21:11:09;11.36;89.81
35085;SHT85;21267;51.032;6.998;2022-09-20T21:13:37;11.22;90.59
35085;SHT85;21267;51.032;6.998;2022-09-20T21:18:32;11.38;90.49
35085;SHT85;21267;51.032;6.998;2022-09-20T21:21:03;11.15;90.78
35085;SHT85;21267;51.032;6.998;2022-09-20T21:23:34;11.02;91.41
35085;SHT85;21267;51.032;6.998;2022-09-20T21:26:05;11.11;91.28
35085;SHT85;21267;51.032;6.998;2022-09-20T21:28:42;11.02;91.46
35085;SHT85;21267;51.032;6.998;2022-09-20T21:31:11;11.10;91.29
35085;SHT85;21267;51.032;6.998;2022-09-20T21:33:39;11.02;91.39
35085;SHT85;21267;51.032;6.998;2022-09-20T21:36:14;11.07;91.21
35085;SHT85;21267;51.032;6.998;2022-09-20T21:38:44;11.21;90.79
35085;SHT85;21267;51.032;6.998;2022-09-20T21:41:18;11.21;90.87